createdAt,value
2023-02-11T00:01:29.292Z,19.10
2023-02-11T00:04:32.361Z,18.70
2023-02-11T00:07:35.867Z,19.77
2023-02-11T00:10:38.235Z,19.50
2023-02-11T00:13:40.977Z,17.55
2023-02-11T00:16:43.501Z,17.62
2023-02-11T00:19:50.577Z,16.70
2023-02-11T00:22:52.954Z,18.17
2023-02-11T00:25:55.219Z,18.45
2023-02-11T00:28:57.783Z,17.08
2023-02-11T00:32:05.426Z,17.57
2023-02-11T00:35:08.127Z,16.45
2023-02-11T00:38:10.492Z,16.60
2023-02-11T00:41:14.463Z,15.38
2023-02-11T00:44:17.058Z,17.37
2023-02-11T00:47:19.323Z,16.92
2023-02-11T00:50:21.737Z,17.45
2023-02-11T00:53:24.016Z,14.98
2023-02-11T00:56:27.248Z,11.93
2023-02-11T00:59:29.494Z,12.15
2023-02-11T01:02:32.313Z,12.57
2023-02-11T01:05:34.888Z,12.82
2023-02-11T01:08:40.044Z,12.33
2023-02-11T01:11:42.556Z,15.52
2023-02-11T01:14:44.835Z,15.98
2023-02-11T01:17:47.310Z,13.80
2023-02-11T01:20:50.966Z,17.23
2023-02-11T01:23:53.544Z,17.67
2023-02-11T01:26:56.324Z,18.95
2023-02-11T01:29:59.012Z,14.77
2023-02-11T01:33:01.455Z,19.27
2023-02-11T01:36:05.414Z,15.32
2023-02-11T01:39:08.905Z,8.35
2023-02-11T01:42:23.302Z,15.70
2023-02-11T01:45:47.501Z,16.00
2023-02-11T01:48:55.924Z,13.95
2023-02-11T01:52:10.802Z,14.77
2023-02-11T01:55:32.858Z,16.05
2023-02-11T01:58:39.126Z,10.13
2023-02-11T02:01:48.653Z,14.55
2023-02-11T02:04:57.854Z,12.82
2023-02-11T02:08:21.670Z,17.55
2023-02-11T02:11:24.147Z,15.25
2023-02-11T02:14:26.898Z,16.37
2023-02-11T02:17:41.737Z,17.65
2023-02-11T02:21:05.727Z,13.77
2023-02-11T02:24:44.848Z,8.65
2023-02-11T02:28:12.886Z,12.90
2023-02-11T02:31:32.051Z,14.73
2023-02-11T02:34:44.796Z,15.60
2023-02-11T02:38:02.067Z,17.67
2023-02-11T02:41:10.631Z,13.50
2023-02-11T02:44:12.994Z,14.87
2023-02-11T02:47:15.518Z,13.88
2023-02-11T02:50:25.405Z,12.07
2023-02-11T02:53:53.356Z,15.18
2023-02-11T02:57:05.208Z,13.68
2023-02-11T03:00:16.856Z,15.32
2023-02-11T03:03:57.096Z,15.43
2023-02-11T03:07:24.827Z,13.75
2023-02-11T03:10:31.604Z,14.55
2023-02-11T03:13:38.025Z,14.70
2023-02-11T03:16:40.729Z,14.03
2023-02-11T03:19:46.171Z,13.60
2023-02-11T03:23:02.991Z,13.50
2023-02-11T03:26:07.976Z,15.00
2023-02-11T03:29:14.879Z,14.95
2023-02-11T03:32:24.649Z,16.40
2023-02-11T03:36:17.864Z,15.88
2023-02-11T03:39:27.418Z,16.53
2023-02-11T03:42:36.777Z,14.13
2023-02-11T03:45:40.186Z,15.23
2023-02-11T03:48:48.458Z,13.90
2023-02-11T03:51:53.334Z,14.67
2023-02-11T03:55:00.252Z,14.75
2023-02-11T03:58:02.560Z,15.95
2023-02-11T04:01:06.336Z,14.32
2023-02-11T04:04:08.642Z,16.47
2023-02-11T04:07:12.863Z,13.88
2023-02-11T04:10:15.474Z,16.05
2023-02-11T04:13:17.806Z,16.70
2023-02-11T04:16:20.287Z,13.10
2023-02-11T04:19:22.743Z,17.23
2023-02-11T04:22:25.174Z,14.82
2023-02-11T04:25:27.528Z,14.85
2023-02-11T04:28:30.229Z,15.20
2023-02-11T04:31:32.676Z,13.55
2023-02-11T04:34:35.189Z,15.43
2023-02-11T04:37:37.575Z,16.37
2023-02-11T04:40:40.698Z,14.80
2023-02-11T04:43:43.108Z,16.87
2023-02-11T04:46:45.428Z,15.57
2023-02-11T04:49:48.217Z,12.27
2023-02-11T04:52:50.640Z,14.05
2023-02-11T04:55:53.049Z,16.47
2023-02-11T04:58:55.488Z,15.55
2023-02-11T05:01:58.111Z,15.82
2023-02-11T05:05:00.525Z,16.98
2023-02-11T05:08:02.811Z,13.20
2023-02-11T05:11:05.200Z,13.62
2023-02-11T05:14:07.919Z,15.25
2023-02-11T05:17:10.367Z,15.40
2023-02-11T05:20:12.792Z,15.43
2023-02-11T05:23:15.181Z,13.00
2023-02-11T05:26:18.401Z,14.85
2023-02-11T05:29:20.709Z,14.68
2023-02-11T05:32:23.077Z,13.33
2023-02-11T05:35:25.489Z,16.85
2023-02-11T05:38:28.480Z,16.17
2023-02-11T05:41:30.920Z,14.43
2023-02-11T05:44:33.344Z,12.13
2023-02-11T05:47:35.709Z,16.05
2023-02-11T05:50:38.175Z,14.18
2023-02-11T05:53:40.565Z,14.82
2023-02-11T05:56:44.838Z,13.43
2023-02-11T05:59:47.372Z,11.50
2023-02-11T06:02:49.761Z,13.38
2023-02-11T06:05:52.369Z,13.97
2023-02-11T06:08:54.903Z,14.30
2023-02-11T06:11:57.240Z,10.63
2023-02-11T06:14:59.662Z,12.02
2023-02-11T06:18:02.045Z,14.00
2023-02-11T06:21:08.626Z,12.00
2023-02-11T06:24:11.106Z,14.73
2023-02-11T06:27:13.479Z,11.68
2023-02-11T06:30:15.951Z,14.23
2023-02-11T06:33:18.280Z,12.57
2023-02-11T06:36:22.429Z,12.27
2023-02-11T06:39:25.203Z,13.02
2023-02-11T06:42:27.756Z,9.07
2023-02-11T06:45:30.178Z,13.13
2023-02-11T06:48:33.955Z,14.98
2023-02-11T06:51:36.460Z,13.73
2023-02-11T06:54:38.915Z,15.70
2023-02-11T06:57:41.281Z,15.80
2023-02-11T07:00:43.663Z,16.73
2023-02-11T07:03:47.103Z,16.83
2023-02-11T07:06:49.328Z,22.55
2023-02-11T07:09:51.827Z,18.62
2023-02-11T07:12:54.876Z,19.83
2023-02-11T07:15:58.321Z,16.80
2023-02-11T07:19:01.060Z,19.47
2023-02-11T07:22:03.748Z,19.02
2023-02-11T07:25:06.412Z,19.12
2023-02-11T07:28:08.806Z,18.50
2023-02-11T07:31:15.259Z,18.52
2023-02-11T07:34:17.801Z,13.60
2023-02-11T07:37:20.236Z,11.02
2023-02-11T07:40:22.571Z,13.27
2023-02-11T07:43:24.851Z,15.02
2023-02-11T07:46:28.285Z,18.23
2023-02-11T07:49:30.732Z,17.97
2023-02-11T07:52:33.143Z,14.20
2023-02-11T07:55:35.870Z,18.08
2023-02-11T07:58:38.511Z,17.08
2023-02-11T08:01:40.845Z,17.60
2023-02-11T08:04:43.398Z,13.10
2023-02-11T08:07:45.817Z,6.97
2023-02-11T08:10:48.322Z,8.63
2023-02-11T08:13:51.087Z,13.70
2023-02-11T08:16:53.566Z,16.90
2023-02-11T08:19:56.154Z,18.00
2023-02-11T08:22:58.629Z,18.67
2023-02-11T08:26:05.632Z,18.30
2023-02-11T08:29:11.636Z,19.67
2023-02-11T08:32:14.045Z,20.52
2023-02-11T08:35:16.459Z,19.60
2023-02-11T08:38:19.104Z,14.55
2023-02-11T08:41:21.454Z,13.00
2023-02-11T08:44:24.961Z,17.58
2023-02-11T08:47:27.340Z,15.25
2023-02-11T08:50:29.756Z,19.47
2023-02-11T08:53:32.595Z,19.00
2023-02-11T08:56:35.236Z,18.02
2023-02-11T08:59:40.156Z,14.73
2023-02-11T09:02:43.194Z,18.50
2023-02-11T09:05:47.869Z,13.93
2023-02-11T09:08:53.843Z,16.05
2023-02-11T09:11:57.523Z,11.68
2023-02-11T09:15:00.099Z,17.83
2023-02-11T09:18:02.974Z,17.05
2023-02-11T09:21:08.653Z,16.23
2023-02-11T09:24:11.930Z,19.23
2023-02-11T09:27:14.193Z,19.27
2023-02-11T09:30:16.599Z,14.55
2023-02-11T09:33:18.957Z,17.17
2023-02-11T09:36:23.799Z,18.40
2023-02-11T09:39:27.004Z,18.02
2023-02-11T09:43:09.121Z,14.30
2023-02-11T09:46:16.190Z,17.92
2023-02-11T09:49:23.356Z,20.17
2023-02-11T09:52:51.849Z,14.57
2023-02-11T09:56:02.802Z,14.20
2023-02-11T09:59:05.291Z,14.57
2023-02-11T10:02:20.520Z,15.60
2023-02-11T10:05:46.823Z,14.98
2023-02-11T10:09:26.579Z,18.47
2023-02-11T10:13:10.327Z,13.82
2023-02-11T10:16:27.516Z,9.02
2023-02-11T10:20:03.669Z,16.20
2023-02-11T10:23:31.112Z,14.13
2023-02-11T10:26:34.181Z,16.93
2023-02-11T10:29:41.274Z,15.95
2023-02-11T10:32:49.854Z,14.82
2023-02-11T10:35:52.244Z,17.40
2023-02-11T10:38:54.637Z,15.55
2023-02-11T10:42:02.900Z,12.73
2023-02-11T10:45:07.538Z,18.25
2023-02-11T10:48:43.146Z,15.05
2023-02-11T10:51:45.559Z,19.98
2023-02-11T10:55:04.312Z,15.18
2023-02-11T10:58:06.709Z,15.73
2023-02-11T11:01:23.512Z,13.80
2023-02-11T11:04:26.943Z,19.12
2023-02-11T11:07:31.297Z,15.68
2023-02-11T11:10:46.132Z,21.65
2023-02-11T11:13:54.499Z,15.87
2023-02-11T11:16:56.873Z,17.27
2023-02-11T11:20:29.400Z,18.27
2023-02-11T11:23:32.487Z,14.70
2023-02-11T11:26:44.889Z,17.08
2023-02-11T11:29:50.671Z,16.47
2023-02-11T11:32:53.525Z,15.93
2023-02-11T11:36:07.567Z,14.18
2023-02-11T11:39:22.289Z,15.25
2023-02-11T11:42:30.817Z,15.63
2023-02-11T11:45:33.204Z,16.27
2023-02-11T11:48:39.088Z,15.48
2023-02-11T11:51:45.941Z,16.17
2023-02-11T11:54:56.457Z,12.05
2023-02-11T11:57:59.056Z,15.90
2023-02-11T12:01:16.545Z,15.80
2023-02-11T12:04:57.267Z,13.32
2023-02-11T12:08:22.272Z,17.25
2023-02-11T12:11:52.333Z,6.93
2023-02-11T12:15:24.742Z,16.12
2023-02-11T12:19:15.125Z,17.97
2023-02-11T12:22:42.390Z,19.98
2023-02-11T12:26:20.347Z,14.07
2023-02-11T12:29:52.160Z,15.40
2023-02-11T12:33:05.459Z,16.27
2023-02-11T12:36:26.808Z,11.97
2023-02-11T12:39:32.559Z,16.33
2023-02-11T12:43:18.373Z,12.80
2023-02-11T12:46:32.846Z,17.85
2023-02-11T12:49:56.078Z,17.33
2023-02-11T12:53:12.895Z,18.93
2023-02-11T12:56:40.905Z,15.90
2023-02-11T13:00:08.619Z,16.62
2023-02-11T13:03:45.290Z,16.27
2023-02-11T13:06:54.406Z,19.70
2023-02-11T13:10:15.849Z,15.10
2023-02-11T13:13:33.488Z,17.10
2023-02-11T13:16:41.995Z,16.52
2023-02-11T13:19:53.010Z,18.62
2023-02-11T13:23:25.789Z,19.23
2023-02-11T13:26:38.501Z,17.70
2023-02-11T13:30:04.488Z,16.95
2023-02-11T13:33:20.182Z,17.20
2023-02-11T13:36:28.245Z,18.05
2023-02-11T13:39:31.339Z,17.23
2023-02-11T13:42:47.925Z,16.97
2023-02-11T13:45:52.714Z,13.18
2023-02-11T13:48:55.977Z,11.23
2023-02-11T13:52:01.171Z,14.68
2023-02-11T13:55:23.047Z,16.45
2023-02-11T13:58:28.509Z,15.60
2023-02-11T14:02:22.350Z,13.20
2023-02-11T14:05:51.320Z,17.30
2023-02-11T14:09:00.150Z,13.95
2023-02-11T14:12:24.663Z,14.20
2023-02-11T14:15:38.282Z,16.13
2023-02-11T14:18:50.122Z,15.82
2023-02-11T14:21:52.779Z,15.20
2023-02-11T14:25:02.278Z,15.75
2023-02-11T14:28:23.116Z,17.10
2023-02-11T14:31:48.934Z,16.07
2023-02-11T14:35:10.285Z,15.68
2023-02-11T14:38:41.300Z,13.25
2023-02-11T14:41:49.269Z,15.60
2023-02-11T14:44:57.910Z,15.68
2023-02-11T14:48:08.568Z,14.10
2023-02-11T14:51:23.942Z,13.13
2023-02-11T14:54:29.472Z,15.27
2023-02-11T14:57:31.881Z,15.38
2023-02-11T15:00:35.204Z,15.57
2023-02-11T15:03:43.651Z,14.20
2023-02-11T15:06:51.856Z,15.70
2023-02-11T15:09:55.151Z,13.18
2023-02-11T15:13:00.126Z,15.90
2023-02-11T15:16:08.410Z,14.85
2023-02-11T15:19:38.457Z,14.93
2023-02-11T15:22:45.966Z,13.27
2023-02-11T15:25:59.203Z,14.85
2023-02-11T15:29:02.561Z,15.27
2023-02-11T15:32:16.448Z,15.63
2023-02-11T15:35:21.127Z,13.67
2023-02-11T15:38:26.179Z,16.50
2023-02-11T15:41:38.857Z,11.70
2023-02-11T15:44:42.243Z,16.50
2023-02-11T15:47:53.363Z,18.37
2023-02-11T15:51:00.558Z,17.73
2023-02-11T15:54:20.423Z,17.08
2023-02-11T15:57:25.024Z,16.65
2023-02-11T16:00:50.433Z,17.30
2023-02-11T16:03:53.938Z,16.08
2023-02-11T16:06:57.538Z,17.67
2023-02-11T16:10:02.025Z,17.37
2023-02-11T16:13:08.603Z,15.07
2023-02-11T16:16:23.219Z,14.95
2023-02-11T16:19:29.295Z,17.90
2023-02-11T16:22:38.809Z,16.00
2023-02-11T16:25:43.591Z,16.48
2023-02-11T16:28:51.906Z,17.92
2023-02-11T16:32:11.406Z,16.58
2023-02-11T16:35:18.673Z,17.23
2023-02-11T16:38:22.192Z,16.90
2023-02-11T16:41:26.227Z,16.98
2023-02-11T16:44:30.485Z,17.27
2023-02-11T16:47:35.820Z,14.23
2023-02-11T16:50:46.174Z,16.98
2023-02-11T16:53:49.885Z,15.53
2023-02-11T16:56:53.553Z,16.12
2023-02-11T16:59:57.019Z,16.80
2023-02-11T17:03:00.747Z,17.48
2023-02-11T17:06:07.571Z,18.08
2023-02-11T17:09:37.795Z,18.13
2023-02-11T17:12:42.256Z,16.87
2023-02-11T17:15:46.162Z,18.33
2023-02-11T17:18:50.374Z,15.95
2023-02-11T17:21:54.793Z,21.77
2023-02-11T17:24:59.401Z,19.93
2023-02-11T17:28:02.878Z,20.40
2023-02-11T17:31:10.773Z,19.25
2023-02-11T17:34:15.452Z,19.27
2023-02-11T17:37:19.288Z,20.95
2023-02-11T17:40:23.913Z,16.97
2023-02-11T17:43:28.899Z,19.30
2023-02-11T17:46:32.974Z,18.20
2023-02-11T17:49:36.948Z,19.73
2023-02-11T17:52:40.664Z,18.67
2023-02-11T17:55:46.219Z,19.87
2023-02-11T17:58:50.820Z,18.48
2023-02-11T18:01:55.012Z,19.48
2023-02-11T18:04:59.359Z,19.45
2023-02-11T18:08:07.558Z,20.65
2023-02-11T18:11:13.714Z,20.57
2023-02-11T18:14:17.716Z,21.08
2023-02-11T18:17:23.706Z,21.23
2023-02-11T18:20:27.374Z,24.55
2023-02-11T18:23:31.244Z,22.23
2023-02-11T18:26:35.813Z,22.00
2023-02-11T18:29:39.722Z,25.77
2023-02-11T18:32:44.492Z,27.20
2023-02-11T18:35:49.820Z,24.92
2023-02-11T18:38:55.228Z,24.40
2023-02-11T18:42:00.299Z,22.07
2023-02-11T18:45:04.369Z,23.08
2023-02-11T18:48:09.529Z,24.00
2023-02-11T18:51:22.084Z,21.87
2023-02-11T18:54:27.453Z,21.58
2023-02-11T18:57:31.549Z,21.80
2023-02-11T19:00:37.096Z,20.62
2023-02-11T19:03:41.539Z,24.35
2023-02-11T19:06:49.458Z,22.00
2023-02-11T19:09:52.535Z,22.15
2023-02-11T19:12:59.656Z,21.07
2023-02-11T19:16:11.066Z,22.73
2023-02-11T19:19:18.182Z,22.17
2023-02-11T19:22:24.643Z,22.52
2023-02-11T19:25:28.786Z,22.25
2023-02-11T19:28:33.291Z,21.87
2023-02-11T19:31:37.761Z,23.73
2023-02-11T19:34:44.502Z,26.67
2023-02-11T19:37:49.186Z,28.17
2023-02-11T19:40:59.870Z,25.77
2023-02-11T19:44:06.055Z,27.03
2023-02-11T19:47:11.356Z,29.05
2023-02-11T19:50:16.564Z,28.10
2023-02-11T19:53:20.929Z,28.50
2023-02-11T19:56:25.002Z,30.37
2023-02-11T19:59:29.127Z,24.73
2023-02-11T20:02:38.191Z,23.65
2023-02-11T20:05:47.896Z,25.10
2023-02-11T20:09:07.170Z,23.38
2023-02-11T20:12:12.895Z,27.05
2023-02-11T20:15:18.480Z,25.93
2023-02-11T20:18:22.001Z,23.87
2023-02-11T20:21:31.934Z,24.77
2023-02-11T20:24:35.990Z,23.42
2023-02-11T20:27:39.991Z,26.52
2023-02-11T20:30:43.911Z,26.57
2023-02-11T20:33:48.894Z,25.83
2023-02-11T20:36:52.554Z,23.17
2023-02-11T20:39:56.192Z,25.88
2023-02-11T20:43:01.009Z,26.62
2023-02-11T20:46:08.743Z,24.97
2023-02-11T20:49:18.233Z,26.60
2023-02-11T20:52:22.777Z,27.60
2023-02-11T20:55:28.363Z,26.17
2023-02-11T20:58:33.667Z,27.42
2023-02-11T21:01:44.085Z,27.17
2023-02-11T21:04:48.235Z,29.70
2023-02-11T21:07:53.523Z,29.12
2023-02-11T21:10:59.327Z,26.60
2023-02-11T21:14:03.199Z,28.00
2023-02-11T21:17:09.168Z,30.43
2023-02-11T21:20:12.950Z,29.55
2023-02-11T21:23:16.355Z,30.92
2023-02-11T21:26:19.722Z,32.25
2023-02-11T21:29:23.377Z,32.03
2023-02-11T21:32:27.939Z,30.53
2023-02-11T21:35:38.436Z,31.73
2023-02-11T21:38:42.722Z,31.55
2023-02-11T21:41:47.626Z,30.37
2023-02-11T21:44:51.338Z,31.70
2023-02-11T21:47:55.093Z,25.17
2023-02-11T21:50:58.364Z,27.77
2023-02-11T21:54:04.769Z,25.02
2023-02-11T21:57:08.196Z,27.48
2023-02-11T22:00:12.606Z,29.15
2023-02-11T22:03:15.410Z,31.77
2023-02-11T22:06:21.956Z,36.38
2023-02-11T22:09:24.747Z,49.35
2023-02-11T22:12:27.398Z,37.38
2023-02-11T22:15:30.031Z,31.60
2023-02-11T22:18:33.164Z,28.70
2023-02-11T22:21:37.596Z,29.63
2023-02-11T22:24:42.426Z,26.73
2023-02-11T22:27:45.331Z,25.52
2023-02-11T22:30:53.717Z,29.73
2023-02-11T22:33:56.989Z,26.60
2023-02-11T22:36:59.423Z,28.00
2023-02-11T22:40:01.874Z,24.12
2023-02-11T22:43:04.400Z,23.30
2023-02-11T22:46:08.008Z,23.45
2023-02-11T22:49:14.553Z,22.03
2023-02-11T22:52:17.741Z,18.98
2023-02-11T22:55:21.279Z,20.85
2023-02-11T22:58:25.154Z,23.17
2023-02-11T23:01:28.780Z,21.80
2023-02-11T23:04:31.083Z,19.60
2023-02-11T23:07:33.411Z,20.58
2023-02-11T23:10:37.227Z,21.15
2023-02-11T23:13:41.391Z,19.25
2023-02-11T23:16:43.796Z,22.07
2023-02-11T23:19:46.292Z,19.45
2023-02-11T23:22:49.735Z,20.65
2023-02-11T23:25:52.051Z,19.77
2023-02-11T23:28:56.372Z,20.70
2023-02-11T23:31:59.140Z,12.37
2023-02-11T23:35:01.516Z,19.27
2023-02-11T23:38:04.014Z,20.55
2023-02-11T23:41:06.600Z,22.67
2023-02-11T23:44:10.927Z,21.67
2023-02-11T23:47:13.425Z,21.97
2023-02-11T23:50:16.052Z,20.30
2023-02-11T23:53:19.592Z,22.65
2023-02-11T23:56:26.621Z,23.70
2023-02-11T23:59:28.987Z,23.05
